sensor_id;sensor_type;location;lat;lon;timestamp;P1;durP1;ratioP1;P2;durP2;ratioP2
68089;SDS011;54880;50.986;6.990;2024-01-10T00:02:03;19.17;;;6.90;;
68089;SDS011;54880;50.986;6.990;2024-01-10T00:04:28;18.97;;;6.53;;
68089;SDS011;54880;50.986;6.990;2024-01-10T00:06:54;17.67;;;7.03;;
68089;SDS011;54880;50.986;6.990;2024-01-10T00:09:19;19.27;;;7.10;;
68089;SDS011;54880;50.986;6.990;2024-01-10T00:11:44;15.10;;;6.20;;
68089;SDS011;54880;50.986;6.990;2024-01-10T00:14:10;13.60;;;6.13;;
68089;SDS011;54880;50.986;6.990;2024-01-10T00:16:35;15.33;;;5.60;;
68089;SDS011;54880;50.986;6.990;2024-01-10T00:19:01;14.43;;;5.87;;
68089;SDS011;54880;50.986;6.990;2024-01-10T00:21:26;18.27;;;6.60;;
68089;SDS011;54880;50.986;6.990;2024-01-10T00:23:51;16.27;;;6.35;;
68089;SDS011;54880;50.986;6.990;2024-01-10T00:26:16;18.63;;;6.00;;
68089;SDS011;54880;50.986;6.990;2024-01-10T00:28:42;16.53;;;6.40;;
68089;SDS011;54880;50.986;6.990;2024-01-10T00:31:07;19.33;;;6.13;;
68089;SDS011;54880;50.986;6.990;2024-01-10T00:33:32;16.97;;;6.70;;
68089;SDS011;54880;50.986;6.990;2024-01-10T00:35:57;14.30;;;6.10;;
68089;SDS011;54880;50.986;6.990;2024-01-10T00:38:23;16.43;;;5.97;;
68089;SDS011;54880;50.986;6.990;2024-01-10T00:40:48;18.00;;;6.60;;
68089;SDS011;54880;50.986;6.990;2024-01-10T00:43:13;15.47;;;5.77;;
68089;SDS011;54880;50.986;6.990;2024-01-10T00:45:38;14.47;;;6.07;;
68089;SDS011;54880;50.986;6.990;2024-01-10T00:48:04;15.00;;;5.57;;
68089;SDS011;54880;50.986;6.990;2024-01-10T00:50:29;15.43;;;5.70;;
68089;SDS011;54880;50.986;6.990;2024-01-10T00:52:55;15.30;;;5.80;;
68089;SDS011;54880;50.986;6.990;2024-01-10T00:55:20;14.70;;;5.53;;
68089;SDS011;54880;50.986;6.990;2024-01-10T00:57:45;12.83;;;5.60;;
68089;SDS011;54880;50.986;6.990;2024-01-10T01:00:11;16.17;;;5.40;;
68089;SDS011;54880;50.986;6.990;2024-01-10T01:02:36;12.93;;;5.53;;
68089;SDS011;54880;50.986;6.990;2024-01-10T01:05:02;14.97;;;5.07;;
68089;SDS011;54880;50.986;6.990;2024-01-10T01:07:27;13.03;;;5.27;;
68089;SDS011;54880;50.986;6.990;2024-01-10T01:09:52;14.03;;;6.33;;
68089;SDS011;54880;50.986;6.990;2024-01-10T01:12:18;13.80;;;5.60;;
68089;SDS011;54880;50.986;6.990;2024-01-10T01:14:43;15.90;;;5.93;;
68089;SDS011;54880;50.986;6.990;2024-01-10T01:17:08;12.97;;;5.63;;
68089;SDS011;54880;50.986;6.990;2024-01-10T01:19:34;12.97;;;4.97;;
68089;SDS011;54880;50.986;6.990;2024-01-10T01:21:59;11.97;;;5.30;;
68089;SDS011;54880;50.986;6.990;2024-01-10T01:24:24;15.77;;;5.27;;
68089;SDS011;54880;50.986;6.990;2024-01-10T01:26:49;18.60;;;5.80;;
68089;SDS011;54880;50.986;6.990;2024-01-10T01:29:15;14.23;;;5.50;;
68089;SDS011;54880;50.986;6.990;2024-01-10T01:31:40;14.47;;;5.47;;
68089;SDS011;54880;50.986;6.990;2024-01-10T01:34:05;16.97;;;5.53;;
68089;SDS011;54880;50.986;6.990;2024-01-10T01:36:30;16.30;;;5.17;;
68089;SDS011;54880;50.986;6.990;2024-01-10T01:38:56;16.80;;;5.87;;
68089;SDS011;54880;50.986;6.990;2024-01-10T01:41:21;15.87;;;5.63;;
68089;SDS011;54880;50.986;6.990;2024-01-10T01:43:46;15.17;;;5.70;;
68089;SDS011;54880;50.986;6.990;2024-01-10T01:46:12;15.65;;;5.68;;
68089;SDS011;54880;50.986;6.990;2024-01-10T01:48:37;13.40;;;5.10;;
68089;SDS011;54880;50.986;6.990;2024-01-10T01:51:06;14.67;;;5.33;;
68089;SDS011;54880;50.986;6.990;2024-01-10T01:53:31;13.68;;;5.40;;
68089;SDS011;54880;50.986;6.990;2024-01-10T01:55:57;12.70;;;5.13;;
68089;SDS011;54880;50.986;6.990;2024-01-10T01:58:25;14.60;;;5.53;;
68089;SDS011;54880;50.986;6.990;2024-01-10T02:00:51;16.10;;;5.30;;
68089;SDS011;54880;50.986;6.990;2024-01-10T02:03:16;12.65;;;5.50;;
68089;SDS011;54880;50.986;6.990;2024-01-10T02:05:41;15.37;;;4.77;;
68089;SDS011;54880;50.986;6.990;2024-01-10T02:08:07;12.83;;;5.63;;
68089;SDS011;54880;50.986;6.990;2024-01-10T02:10:33;13.23;;;4.88;;
68089;SDS011;54880;50.986;6.990;2024-01-10T02:12:59;13.37;;;5.33;;
68089;SDS011;54880;50.986;6.990;2024-01-10T02:15:24;11.90;;;4.47;;
68089;SDS011;54880;50.986;6.990;2024-01-10T02:17:49;11.10;;;4.50;;
68089;SDS011;54880;50.986;6.990;2024-01-10T02:20:15;12.03;;;4.73;;
68089;SDS011;54880;50.986;6.990;2024-01-10T02:22:43;13.75;;;5.55;;
68089;SDS011;54880;50.986;6.990;2024-01-10T02:25:09;13.30;;;4.80;;
68089;SDS011;54880;50.986;6.990;2024-01-10T02:27:37;13.02;;;5.88;;
68089;SDS011;54880;50.986;6.990;2024-01-10T02:30:03;19.33;;;6.32;;
68089;SDS011;54880;50.986;6.990;2024-01-10T02:32:29;14.30;;;5.00;;
68089;SDS011;54880;50.986;6.990;2024-01-10T02:34:55;12.73;;;4.85;;
68089;SDS011;54880;50.986;6.990;2024-01-10T02:37:20;13.88;;;4.88;;
68089;SDS011;54880;50.986;6.990;2024-01-10T02:39:45;13.20;;;4.83;;
68089;SDS011;54880;50.986;6.990;2024-01-10T02:42:10;14.57;;;5.13;;
68089;SDS011;54880;50.986;6.990;2024-01-10T02:44:36;12.97;;;4.80;;
68089;SDS011;54880;50.986;6.990;2024-01-10T02:47:01;13.03;;;5.40;;
68089;SDS011;54880;50.986;6.990;2024-01-10T02:49:26;14.00;;;4.77;;
68089;SDS011;54880;50.986;6.990;2024-01-10T02:51:51;16.73;;;5.37;;
68089;SDS011;54880;50.986;6.990;2024-01-10T02:54:17;13.37;;;5.00;;
68089;SDS011;54880;50.986;6.990;2024-01-10T02:56:42;12.63;;;4.97;;
68089;SDS011;54880;50.986;6.990;2024-01-10T02:59:07;14.87;;;5.13;;
68089;SDS011;54880;50.986;6.990;2024-01-10T03:01:32;14.20;;;4.93;;
68089;SDS011;54880;50.986;6.990;2024-01-10T03:03:58;13.60;;;5.13;;
68089;SDS011;54880;50.986;6.990;2024-01-10T03:06:23;15.07;;;5.33;;
68089;SDS011;54880;50.986;6.990;2024-01-10T03:08:48;13.27;;;5.43;;
68089;SDS011;54880;50.986;6.990;2024-01-10T03:11:13;15.63;;;5.77;;
68089;SDS011;54880;50.986;6.990;2024-01-10T03:13:39;12.87;;;4.70;;
68089;SDS011;54880;50.986;6.990;2024-01-10T03:16:05;12.63;;;4.50;;
68089;SDS011;54880;50.986;6.990;2024-01-10T03:18:31;14.35;;;4.47;;
68089;SDS011;54880;50.986;6.990;2024-01-10T03:20:56;13.77;;;5.00;;
68089;SDS011;54880;50.986;6.990;2024-01-10T03:23:21;15.47;;;4.37;;
68089;SDS011;54880;50.986;6.990;2024-01-10T03:25:47;16.63;;;5.33;;
68089;SDS011;54880;50.986;6.990;2024-01-10T03:28:15;14.60;;;5.07;;
68089;SDS011;54880;50.986;6.990;2024-01-10T03:30:40;12.15;;;4.53;;
68089;SDS011;54880;50.986;6.990;2024-01-10T03:33:05;17.47;;;5.03;;
68089;SDS011;54880;50.986;6.990;2024-01-10T03:35:31;15.67;;;4.57;;
68089;SDS011;54880;50.986;6.990;2024-01-10T03:37:56;12.70;;;5.27;;
68089;SDS011;54880;50.986;6.990;2024-01-10T03:40:21;13.97;;;5.47;;
68089;SDS011;54880;50.986;6.990;2024-01-10T03:42:46;12.80;;;4.30;;
68089;SDS011;54880;50.986;6.990;2024-01-10T03:45:12;15.23;;;5.27;;
68089;SDS011;54880;50.986;6.990;2024-01-10T03:47:37;14.07;;;5.57;;
68089;SDS011;54880;50.986;6.990;2024-01-10T03:50:02;16.03;;;5.87;;
68089;SDS011;54880;50.986;6.990;2024-01-10T03:52:27;10.47;;;5.10;;
68089;SDS011;54880;50.986;6.990;2024-01-10T03:54:53;16.10;;;5.57;;
68089;SDS011;54880;50.986;6.990;2024-01-10T03:57:18;16.10;;;5.70;;
68089;SDS011;54880;50.986;6.990;2024-01-10T03:59:43;11.83;;;4.70;;
68089;SDS011;54880;50.986;6.990;2024-01-10T04:02:08;17.07;;;5.77;;
68089;SDS011;54880;50.986;6.990;2024-01-10T04:04:36;13.07;;;5.30;;
68089;SDS011;54880;50.986;6.990;2024-01-10T04:07:01;14.98;;;5.78;;
68089;SDS011;54880;50.986;6.990;2024-01-10T04:09:26;12.13;;;4.83;;
68089;SDS011;54880;50.986;6.990;2024-01-10T04:11:52;14.90;;;5.80;;
68089;SDS011;54880;50.986;6.990;2024-01-10T04:14:17;16.73;;;5.57;;
68089;SDS011;54880;50.986;6.990;2024-01-10T04:16:42;15.87;;;5.80;;
68089;SDS011;54880;50.986;6.990;2024-01-10T04:19:07;13.63;;;5.30;;
68089;SDS011;54880;50.986;6.990;2024-01-10T04:21:33;14.93;;;5.60;;
68089;SDS011;54880;50.986;6.990;2024-01-10T04:23:58;14.83;;;5.47;;
68089;SDS011;54880;50.986;6.990;2024-01-10T04:26:23;15.57;;;5.67;;
68089;SDS011;54880;50.986;6.990;2024-01-10T04:28:48;18.40;;;6.50;;
68089;SDS011;54880;50.986;6.990;2024-01-10T04:31:14;18.27;;;6.47;;
68089;SDS011;54880;50.986;6.990;2024-01-10T04:33:39;17.93;;;7.00;;
68089;SDS011;54880;50.986;6.990;2024-01-10T04:36:04;17.33;;;6.33;;
68089;SDS011;54880;50.986;6.990;2024-01-10T04:38:29;14.87;;;6.10;;
68089;SDS011;54880;50.986;6.990;2024-01-10T04:40:55;18.00;;;6.17;;
68089;SDS011;54880;50.986;6.990;2024-01-10T04:43:20;15.57;;;5.80;;
68089;SDS011;54880;50.986;6.990;2024-01-10T04:45:45;16.27;;;5.67;;
68089;SDS011;54880;50.986;6.990;2024-01-10T04:48:10;17.20;;;6.97;;
68089;SDS011;54880;50.986;6.990;2024-01-10T04:50:36;17.40;;;6.43;;
68089;SDS011;54880;50.986;6.990;2024-01-10T04:53:01;17.53;;;5.63;;
68089;SDS011;54880;50.986;6.990;2024-01-10T04:55:26;17.20;;;5.97;;
68089;SDS011;54880;50.986;6.990;2024-01-10T04:57:52;15.77;;;6.60;;
68089;SDS011;54880;50.986;6.990;2024-01-10T05:00:18;13.47;;;6.40;;
68089;SDS011;54880;50.986;6.990;2024-01-10T05:02:43;15.97;;;6.10;;
68089;SDS011;54880;50.986;6.990;2024-01-10T05:05:08;16.03;;;6.90;;
68089;SDS011;54880;50.986;6.990;2024-01-10T05:07:33;17.13;;;6.33;;
68089;SDS011;54880;50.986;6.990;2024-01-10T05:09:59;15.20;;;6.17;;
68089;SDS011;54880;50.986;6.990;2024-01-10T05:12:24;19.57;;;6.40;;
68089;SDS011;54880;50.986;6.990;2024-01-10T05:14:50;17.00;;;6.13;;
68089;SDS011;54880;50.986;6.990;2024-01-10T05:17:15;15.63;;;6.17;;
68089;SDS011;54880;50.986;6.990;2024-01-10T05:19:41;13.60;;;5.90;;
68089;SDS011;54880;50.986;6.990;2024-01-10T05:22:07;15.27;;;5.63;;
68089;SDS011;54880;50.986;6.990;2024-01-10T05:24:32;15.73;;;5.47;;
68089;SDS011;54880;50.986;6.990;2024-01-10T05:26:57;12.63;;;5.77;;
68089;SDS011;54880;50.986;6.990;2024-01-10T05:29:22;16.67;;;6.63;;
68089;SDS011;54880;50.986;6.990;2024-01-10T05:31:49;17.02;;;6.10;;
68089;SDS011;54880;50.986;6.990;2024-01-10T05:34:14;18.07;;;6.20;;
68089;SDS011;54880;50.986;6.990;2024-01-10T05:36:39;12.47;;;5.10;;
68089;SDS011;54880;50.986;6.990;2024-01-10T05:39:05;14.13;;;5.63;;
68089;SDS011;54880;50.986;6.990;2024-01-10T05:41:30;14.53;;;5.60;;
68089;SDS011;54880;50.986;6.990;2024-01-10T05:43:55;16.23;;;6.67;;
68089;SDS011;54880;50.986;6.990;2024-01-10T05:46:20;15.93;;;6.20;;
68089;SDS011;54880;50.986;6.990;2024-01-10T05:48:46;14.30;;;5.57;;
68089;SDS011;54880;50.986;6.990;2024-01-10T05:51:11;15.50;;;6.00;;
68089;SDS011;54880;50.986;6.990;2024-01-10T05:53:37;15.10;;;5.10;;
68089;SDS011;54880;50.986;6.990;2024-01-10T05:56:02;13.10;;;4.87;;
68089;SDS011;54880;50.986;6.990;2024-01-10T05:58:28;13.07;;;5.38;;
68089;SDS011;54880;50.986;6.990;2024-01-10T06:00:53;17.93;;;5.77;;
68089;SDS011;54880;50.986;6.990;2024-01-10T06:03:20;16.70;;;5.30;;
68089;SDS011;54880;50.986;6.990;2024-01-10T06:05:45;13.57;;;4.80;;
68089;SDS011;54880;50.986;6.990;2024-01-10T06:08:10;14.37;;;5.10;;
68089;SDS011;54880;50.986;6.990;2024-01-10T06:10:36;14.83;;;5.00;;
68089;SDS011;54880;50.986;6.990;2024-01-10T06:13:01;14.32;;;4.75;;
68089;SDS011;54880;50.986;6.990;2024-01-10T06:15:26;13.77;;;5.30;;
68089;SDS011;54880;50.986;6.990;2024-01-10T06:17:51;13.23;;;5.10;;
68089;SDS011;54880;50.986;6.990;2024-01-10T06:20:16;13.30;;;4.82;;
68089;SDS011;54880;50.986;6.990;2024-01-10T06:22:42;12.38;;;4.90;;
68089;SDS011;54880;50.986;6.990;2024-01-10T06:25:07;11.80;;;5.27;;
68089;SDS011;54880;50.986;6.990;2024-01-10T06:27:32;12.63;;;5.23;;
68089;SDS011;54880;50.986;6.990;2024-01-10T06:29:58;12.57;;;5.17;;
68089;SDS011;54880;50.986;6.990;2024-01-10T06:32:23;14.60;;;5.20;;
68089;SDS011;54880;50.986;6.990;2024-01-10T06:34:48;13.23;;;5.33;;
68089;SDS011;54880;50.986;6.990;2024-01-10T06:37:13;13.67;;;5.40;;
68089;SDS011;54880;50.986;6.990;2024-01-10T06:39:39;15.87;;;5.47;;
68089;SDS011;54880;50.986;6.990;2024-01-10T06:42:04;15.50;;;5.70;;
68089;SDS011;54880;50.986;6.990;2024-01-10T06:44:31;15.35;;;5.25;;
68089;SDS011;54880;50.986;6.990;2024-01-10T06:46:56;15.70;;;4.97;;
68089;SDS011;54880;50.986;6.990;2024-01-10T06:49:22;13.93;;;5.27;;
68089;SDS011;54880;50.986;6.990;2024-01-10T06:51:47;14.13;;;5.33;;
68089;SDS011;54880;50.986;6.990;2024-01-10T06:54:12;15.33;;;5.03;;
68089;SDS011;54880;50.986;6.990;2024-01-10T06:56:38;18.20;;;5.30;;
68089;SDS011;54880;50.986;6.990;2024-01-10T06:59:04;13.03;;;4.80;;
68089;SDS011;54880;50.986;6.990;2024-01-10T07:01:29;13.33;;;4.50;;
68089;SDS011;54880;50.986;6.990;2024-01-10T07:03:54;16.53;;;4.97;;
68089;SDS011;54880;50.986;6.990;2024-01-10T07:06:20;12.90;;;4.30;;
68089;SDS011;54880;50.986;6.990;2024-01-10T07:08:45;11.47;;;4.17;;
68089;SDS011;54880;50.986;6.990;2024-01-10T07:11:11;12.23;;;4.20;;
68089;SDS011;54880;50.986;6.990;2024-01-10T07:13:40;16.05;;;5.63;;
68089;SDS011;54880;50.986;6.990;2024-01-10T07:16:05;14.82;;;5.00;;
68089;SDS011;54880;50.986;6.990;2024-01-10T07:18:31;11.73;;;4.37;;
68089;SDS011;54880;50.986;6.990;2024-01-10T07:20:56;10.97;;;4.37;;
68089;SDS011;54880;50.986;6.990;2024-01-10T07:23:21;12.73;;;4.27;;
68089;SDS011;54880;50.986;6.990;2024-01-10T07:25:48;12.48;;;4.82;;
68089;SDS011;54880;50.986;6.990;2024-01-10T07:28:13;10.90;;;4.27;;
68089;SDS011;54880;50.986;6.990;2024-01-10T07:30:38;11.97;;;5.40;;
68089;SDS011;54880;50.986;6.990;2024-01-10T07:33:04;10.50;;;4.43;;
68089;SDS011;54880;50.986;6.990;2024-01-10T07:35:29;12.00;;;4.72;;
68089;SDS011;54880;50.986;6.990;2024-01-10T07:37:55;13.07;;;4.27;;
68089;SDS011;54880;50.986;6.990;2024-01-10T07:40:20;13.17;;;4.40;;
68089;SDS011;54880;50.986;6.990;2024-01-10T07:42:46;12.33;;;4.10;;
68089;SDS011;54880;50.986;6.990;2024-01-10T07:45:11;12.07;;;4.37;;
68089;SDS011;54880;50.986;6.990;2024-01-10T07:47:37;11.43;;;4.47;;
68089;SDS011;54880;50.986;6.990;2024-01-10T07:50:04;12.85;;;4.57;;
68089;SDS011;54880;50.986;6.990;2024-01-10T07:52:29;11.45;;;4.40;;
68089;SDS011;54880;50.986;6.990;2024-01-10T07:54:55;13.27;;;4.33;;
68089;SDS011;54880;50.986;6.990;2024-01-10T07:57:20;11.93;;;3.90;;
68089;SDS011;54880;50.986;6.990;2024-01-10T07:59:45;11.17;;;4.30;;
68089;SDS011;54880;50.986;6.990;2024-01-10T08:02:10;11.10;;;4.10;;
68089;SDS011;54880;50.986;6.990;2024-01-10T08:04:37;11.53;;;4.13;;
68089;SDS011;54880;50.986;6.990;2024-01-10T08:07:02;8.80;;;3.83;;
68089;SDS011;54880;50.986;6.990;2024-01-10T08:09:27;14.10;;;4.13;;
68089;SDS011;54880;50.986;6.990;2024-01-10T08:11:53;12.57;;;4.90;;
68089;SDS011;54880;50.986;6.990;2024-01-10T08:14:18;15.67;;;4.60;;
68089;SDS011;54880;50.986;6.990;2024-01-10T08:16:43;17.03;;;5.00;;
68089;SDS011;54880;50.986;6.990;2024-01-10T08:19:09;13.18;;;4.38;;
68089;SDS011;54880;50.986;6.990;2024-01-10T08:21:36;11.83;;;4.20;;
68089;SDS011;54880;50.986;6.990;2024-01-10T08:24:02;15.20;;;5.47;;
68089;SDS011;54880;50.986;6.990;2024-01-10T08:26:27;18.53;;;5.77;;
68089;SDS011;54880;50.986;6.990;2024-01-10T08:28:52;15.17;;;5.97;;
68089;SDS011;54880;50.986;6.990;2024-01-10T08:31:18;21.63;;;6.87;;
68089;SDS011;54880;50.986;6.990;2024-01-10T08:33:43;16.57;;;7.03;;
68089;SDS011;54880;50.986;6.990;2024-01-10T08:36:08;18.53;;;6.73;;
68089;SDS011;54880;50.986;6.990;2024-01-10T08:38:35;16.42;;;6.63;;
68089;SDS011;54880;50.986;6.990;2024-01-10T08:41:00;21.03;;;6.80;;
68089;SDS011;54880;50.986;6.990;2024-01-10T08:43:26;17.80;;;7.03;;
68089;SDS011;54880;50.986;6.990;2024-01-10T08:45:51;18.30;;;7.73;;
68089;SDS011;54880;50.986;6.990;2024-01-10T08:48:16;18.80;;;7.70;;
68089;SDS011;54880;50.986;6.990;2024-01-10T08:50:42;17.93;;;7.23;;
68089;SDS011;54880;50.986;6.990;2024-01-10T08:53:07;20.43;;;7.70;;
68089;SDS011;54880;50.986;6.990;2024-01-10T08:55:32;23.37;;;8.37;;
68089;SDS011;54880;50.986;6.990;2024-01-10T08:57:59;24.48;;;9.00;;
68089;SDS011;54880;50.986;6.990;2024-01-10T09:00:24;21.23;;;9.10;;
68089;SDS011;54880;50.986;6.990;2024-01-10T09:02:49;19.53;;;7.73;;
68089;SDS011;54880;50.986;6.990;2024-01-10T09:05:15;17.67;;;7.10;;
68089;SDS011;54880;50.986;6.990;2024-01-10T09:07:40;14.47;;;6.77;;
68089;SDS011;54880;50.986;6.990;2024-01-10T09:10:07;20.60;;;7.60;;
68089;SDS011;54880;50.986;6.990;2024-01-10T09:12:32;18.10;;;8.00;;
68089;SDS011;54880;50.986;6.990;2024-01-10T09:14:58;23.83;;;7.87;;
68089;SDS011;54880;50.986;6.990;2024-01-10T09:17:23;21.43;;;7.53;;
68089;SDS011;54880;50.986;6.990;2024-01-10T09:19:48;16.50;;;7.07;;
68089;SDS011;54880;50.986;6.990;2024-01-10T09:22:14;18.30;;;6.77;;
68089;SDS011;54880;50.986;6.990;2024-01-10T09:24:39;19.53;;;6.57;;
68089;SDS011;54880;50.986;6.990;2024-01-10T09:27:04;17.43;;;6.53;;
68089;SDS011;54880;50.986;6.990;2024-01-10T09:29:29;17.60;;;7.80;;
68089;SDS011;54880;50.986;6.990;2024-01-10T09:31:56;21.00;;;8.18;;
68089;SDS011;54880;50.986;6.990;2024-01-10T09:34:21;20.57;;;7.90;;
68089;SDS011;54880;50.986;6.990;2024-01-10T09:36:47;22.03;;;7.50;;
68089;SDS011;54880;50.986;6.990;2024-01-10T09:39:12;25.60;;;7.83;;
68089;SDS011;54880;50.986;6.990;2024-01-10T09:41:40;21.13;;;7.30;;
68089;SDS011;54880;50.986;6.990;2024-01-10T09:44:08;17.52;;;6.95;;
68089;SDS011;54880;50.986;6.990;2024-01-10T09:46:34;19.15;;;6.85;;
68089;SDS011;54880;50.986;6.990;2024-01-10T09:49:02;16.88;;;6.63;;
68089;SDS011;54880;50.986;6.990;2024-01-10T09:51:28;16.30;;;7.03;;
68089;SDS011;54880;50.986;6.990;2024-01-10T09:53:53;20.10;;;6.97;;
68089;SDS011;54880;50.986;6.990;2024-01-10T09:56:20;24.25;;;6.63;;
68089;SDS011;54880;50.986;6.990;2024-01-10T09:58:45;18.20;;;5.90;;
68089;SDS011;54880;50.986;6.990;2024-01-10T10:01:13;19.35;;;6.45;;
68089;SDS011;54880;50.986;6.990;2024-01-10T10:03:39;19.60;;;6.63;;
68089;SDS011;54880;50.986;6.990;2024-01-10T10:06:07;21.20;;;6.60;;
68089;SDS011;54880;50.986;6.990;2024-01-10T10:08:32;17.08;;;6.60;;
68089;SDS011;54880;50.986;6.990;2024-01-10T10:10:58;19.87;;;6.77;;
68089;SDS011;54880;50.986;6.990;2024-01-10T10:13:27;18.43;;;6.83;;
68089;SDS011;54880;50.986;6.990;2024-01-10T10:16:03;18.00;;;7.25;;
68089;SDS011;54880;50.986;6.990;2024-01-10T10:18:29;18.90;;;6.20;;
68089;SDS011;54880;50.986;6.990;2024-01-10T10:21:10;18.70;;;6.97;;
68089;SDS011;54880;50.986;6.990;2024-01-10T10:23:36;18.92;;;6.85;;
68089;SDS011;54880;50.986;6.990;2024-01-10T10:28:39;15.50;;;6.40;;
68089;SDS011;54880;50.986;6.990;2024-01-10T10:31:05;20.23;;;6.82;;
68089;SDS011;54880;50.986;6.990;2024-01-10T10:33:32;21.63;;;7.77;;
68089;SDS011;54880;50.986;6.990;2024-01-10T10:35:57;20.58;;;7.30;;
68089;SDS011;54880;50.986;6.990;2024-01-10T10:38:22;18.87;;;7.20;;
68089;SDS011;54880;50.986;6.990;2024-01-10T10:40:48;23.27;;;8.43;;
68089;SDS011;54880;50.986;6.990;2024-01-10T10:43:14;18.75;;;7.25;;
68089;SDS011;54880;50.986;6.990;2024-01-10T10:45:44;19.83;;;7.90;;
68089;SDS011;54880;50.986;6.990;2024-01-10T10:48:11;20.83;;;7.85;;
68089;SDS011;54880;50.986;6.990;2024-01-10T10:50:38;19.83;;;7.80;;
68089;SDS011;54880;50.986;6.990;2024-01-10T10:53:03;18.43;;;7.97;;
68089;SDS011;54880;50.986;6.990;2024-01-10T10:55:29;21.50;;;7.80;;
68089;SDS011;54880;50.986;6.990;2024-01-10T10:57:54;19.40;;;7.93;;
68089;SDS011;54880;50.986;6.990;2024-01-10T11:00:20;20.83;;;7.75;;
68089;SDS011;54880;50.986;6.990;2024-01-10T11:02:47;24.57;;;8.20;;
68089;SDS011;54880;50.986;6.990;2024-01-10T11:05:12;19.83;;;7.63;;
68089;SDS011;54880;50.986;6.990;2024-01-10T11:07:38;19.70;;;7.07;;
68089;SDS011;54880;50.986;6.990;2024-01-10T11:10:05;19.80;;;7.63;;
68089;SDS011;54880;50.986;6.990;2024-01-10T11:12:34;23.07;;;8.13;;
68089;SDS011;54880;50.986;6.990;2024-01-10T11:18:04;20.52;;;8.57;;
68089;SDS011;54880;50.986;6.990;2024-01-10T11:23:35;20.05;;;7.88;;
68089;SDS011;54880;50.986;6.990;2024-01-10T11:25:49;23.67;;;8.37;;
68089;SDS011;54880;50.986;6.990;2024-01-10T11:28:15;21.77;;;8.70;;
68089;SDS011;54880;50.986;6.990;2024-01-10T11:30:50;18.57;;;7.77;;
68089;SDS011;54880;50.986;6.990;2024-01-10T11:36:06;22.37;;;8.77;;
68089;SDS011;54880;50.986;6.990;2024-01-10T11:38:30;19.08;;;6.93;;
68089;SDS011;54880;50.986;6.990;2024-01-10T11:40:56;24.60;;;8.63;;
68089;SDS011;54880;50.986;6.990;2024-01-10T11:43:21;24.52;;;9.07;;
68089;SDS011;54880;50.986;6.990;2024-01-10T11:45:50;20.33;;;7.87;;
68089;SDS011;54880;50.986;6.990;2024-01-10T11:48:15;26.50;;;9.13;;
68089;SDS011;54880;50.986;6.990;2024-01-10T11:50:42;25.53;;;8.30;;
68089;SDS011;54880;50.986;6.990;2024-01-10T11:53:07;22.83;;;8.38;;
68089;SDS011;54880;50.986;6.990;2024-01-10T11:58:27;21.90;;;7.97;;
68089;SDS011;54880;50.986;6.990;2024-01-10T12:00:52;23.10;;;8.97;;
68089;SDS011;54880;50.986;6.990;2024-01-10T12:03:17;23.67;;;8.23;;
68089;SDS011;54880;50.986;6.990;2024-01-10T12:05:44;26.60;;;9.18;;
68089;SDS011;54880;50.986;6.990;2024-01-10T12:08:09;23.87;;;8.30;;
68089;SDS011;54880;50.986;6.990;2024-01-10T12:10:45;24.08;;;9.10;;
68089;SDS011;54880;50.986;6.990;2024-01-10T12:13:10;26.53;;;11.27;;
68089;SDS011;54880;50.986;6.990;2024-01-10T12:15:36;25.47;;;10.03;;
68089;SDS011;54880;50.986;6.990;2024-01-10T12:18:01;27.60;;;9.80;;
68089;SDS011;54880;50.986;6.990;2024-01-10T12:20:27;30.38;;;12.02;;
68089;SDS011;54880;50.986;6.990;2024-01-10T12:22:53;23.52;;;9.18;;
68089;SDS011;54880;50.986;6.990;2024-01-10T12:25:19;35.30;;;11.87;;
68089;SDS011;54880;50.986;6.990;2024-01-10T12:27:44;29.15;;;10.32;;
68089;SDS011;54880;50.986;6.990;2024-01-10T12:30:10;27.17;;;9.83;;
68089;SDS011;54880;50.986;6.990;2024-01-10T12:32:36;23.33;;;8.95;;
68089;SDS011;54880;50.986;6.990;2024-01-10T12:35:01;22.93;;;9.87;;
68089;SDS011;54880;50.986;6.990;2024-01-10T12:37:27;20.42;;;8.52;;
68089;SDS011;54880;50.986;6.990;2024-01-10T12:39:52;20.70;;;8.70;;
68089;SDS011;54880;50.986;6.990;2024-01-10T12:42:18;23.10;;;8.50;;
68089;SDS011;54880;50.986;6.990;2024-01-10T12:44:44;23.80;;;8.98;;
68089;SDS011;54880;50.986;6.990;2024-01-10T12:47:17;23.80;;;8.50;;
68089;SDS011;54880;50.986;6.990;2024-01-10T12:49:43;21.25;;;9.07;;
68089;SDS011;54880;50.986;6.990;2024-01-10T12:52:08;19.80;;;8.73;;
68089;SDS011;54880;50.986;6.990;2024-01-10T12:54:33;22.73;;;8.53;;
68089;SDS011;54880;50.986;6.990;2024-01-10T12:56:58;24.27;;;9.30;;
68089;SDS011;54880;50.986;6.990;2024-01-10T12:59:24;23.00;;;8.73;;
68089;SDS011;54880;50.986;6.990;2024-01-10T13:01:49;21.33;;;9.07;;
68089;SDS011;54880;50.986;6.990;2024-01-10T13:04:14;20.63;;;8.93;;
68089;SDS011;54880;50.986;6.990;2024-01-10T13:06:39;31.30;;;8.63;;
68089;SDS011;54880;50.986;6.990;2024-01-10T13:09:08;21.13;;;8.65;;
68089;SDS011;54880;50.986;6.990;2024-01-10T13:11:34;21.13;;;8.25;;
68089;SDS011;54880;50.986;6.990;2024-01-10T13:13:59;20.83;;;8.27;;
68089;SDS011;54880;50.986;6.990;2024-01-10T13:16:25;22.38;;;8.40;;
68089;SDS011;54880;50.986;6.990;2024-01-10T13:18:50;21.37;;;7.73;;
68089;SDS011;54880;50.986;6.990;2024-01-10T13:21:16;20.43;;;9.07;;
68089;SDS011;54880;50.986;6.990;2024-01-10T13:23:41;21.43;;;8.47;;
68089;SDS011;54880;50.986;6.990;2024-01-10T13:26:07;23.83;;;8.80;;
68089;SDS011;54880;50.986;6.990;2024-01-10T13:28:32;21.57;;;8.87;;
68089;SDS011;54880;50.986;6.990;2024-01-10T13:30:57;23.63;;;9.07;;
68089;SDS011;54880;50.986;6.990;2024-01-10T13:33:23;24.20;;;8.10;;
68089;SDS011;54880;50.986;6.990;2024-01-10T13:35:48;23.77;;;9.40;;
68089;SDS011;54880;50.986;6.990;2024-01-10T13:38:14;22.67;;;8.50;;
68089;SDS011;54880;50.986;6.990;2024-01-10T13:40:39;21.33;;;8.73;;
68089;SDS011;54880;50.986;6.990;2024-01-10T13:43:04;21.00;;;8.57;;
68089;SDS011;54880;50.986;6.990;2024-01-10T13:45:30;26.73;;;9.23;;
68089;SDS011;54880;50.986;6.990;2024-01-10T13:47:55;23.00;;;8.80;;
68089;SDS011;54880;50.986;6.990;2024-01-10T13:50:20;22.70;;;8.73;;
68089;SDS011;54880;50.986;6.990;2024-01-10T13:52:46;26.40;;;8.83;;
68089;SDS011;54880;50.986;6.990;2024-01-10T13:55:12;23.93;;;8.50;;
68089;SDS011;54880;50.986;6.990;2024-01-10T13:57:37;22.20;;;8.70;;
68089;SDS011;54880;50.986;6.990;2024-01-10T14:00:03;24.10;;;9.50;;
68089;SDS011;54880;50.986;6.990;2024-01-10T14:02:37;27.65;;;9.50;;
68089;SDS011;54880;50.986;6.990;2024-01-10T14:05:02;20.43;;;8.67;;
68089;SDS011;54880;50.986;6.990;2024-01-10T14:07:31;23.58;;;8.93;;
68089;SDS011;54880;50.986;6.990;2024-01-10T14:09:57;23.02;;;9.15;;
68089;SDS011;54880;50.986;6.990;2024-01-10T14:12:22;26.87;;;9.03;;
68089;SDS011;54880;50.986;6.990;2024-01-10T14:14:48;27.10;;;8.90;;
68089;SDS011;54880;50.986;6.990;2024-01-10T14:17:13;25.63;;;8.83;;
68089;SDS011;54880;50.986;6.990;2024-01-10T14:19:38;23.93;;;9.90;;
68089;SDS011;54880;50.986;6.990;2024-01-10T14:22:04;21.63;;;9.03;;
68089;SDS011;54880;50.986;6.990;2024-01-10T14:24:29;23.73;;;9.30;;
68089;SDS011;54880;50.986;6.990;2024-01-10T14:26:55;21.65;;;8.50;;
68089;SDS011;54880;50.986;6.990;2024-01-10T14:29:20;25.60;;;9.60;;
68089;SDS011;54880;50.986;6.990;2024-01-10T14:31:47;24.63;;;10.18;;
68089;SDS011;54880;50.986;6.990;2024-01-10T14:34:12;22.00;;;8.63;;
68089;SDS011;54880;50.986;6.990;2024-01-10T14:36:39;22.98;;;9.13;;
68089;SDS011;54880;50.986;6.990;2024-01-10T14:39:04;23.73;;;9.60;;